createdAt,value
2018-09-02T00:00:45.952Z,50.90
2018-09-02T00:03:49.282Z,51.15
2018-09-02T00:06:52.597Z,51.05
2018-09-02T00:09:55.866Z,51.42
2018-09-02T00:12:59.400Z,50.95
2018-09-02T00:16:02.671Z,51.34
2018-09-02T00:19:06.612Z,51.39
2018-09-02T00:22:09.880Z,51.68
2018-09-02T00:25:13.074Z,52.79
2018-09-02T00:28:16.372Z,52.76
2018-09-02T00:31:19.677Z,52.84
2018-09-02T00:34:23.019Z,52.58
2018-09-02T00:37:26.395Z,52.18
2018-09-02T00:40:29.685Z,52.17
2018-09-02T00:43:32.959Z,52.10
2018-09-02T00:46:36.700Z,52.19
2018-09-02T00:49:39.970Z,52.39
2018-09-02T00:52:43.277Z,52.35
2018-09-02T00:55:47.587Z,52.38
2018-09-02T00:58:50.883Z,52.38
2018-09-02T01:01:54.087Z,52.49
2018-09-02T01:04:57.402Z,52.60
2018-09-02T01:08:00.699Z,51.73
2018-09-02T01:11:03.962Z,51.27
2018-09-02T01:14:07.851Z,51.20
2018-09-02T01:17:11.078Z,51.40
2018-09-02T01:20:15.427Z,51.23
2018-09-02T01:23:18.834Z,51.64
2018-09-02T01:26:22.063Z,51.67
2018-09-02T01:29:25.372Z,51.20
2018-09-02T01:32:28.688Z,51.05
2018-09-02T01:35:33.445Z,51.34
2018-09-02T01:38:38.851Z,51.09
2018-09-02T01:41:42.070Z,51.08
2018-09-02T01:44:45.364Z,50.58
2018-09-02T01:47:48.785Z,51.24
2018-09-02T01:50:52.061Z,50.97
2018-09-02T01:53:55.272Z,51.26
2018-09-02T01:56:58.574Z,50.79
2018-09-02T02:00:01.728Z,50.53
2018-09-02T02:03:04.942Z,50.94
2018-09-02T02:06:09.255Z,50.99
2018-09-02T02:09:12.609Z,50.93
2018-09-02T02:12:15.856Z,49.99
2018-09-02T02:15:19.255Z,50.06
2018-09-02T02:18:22.547Z,50.43
2018-09-02T02:21:25.848Z,50.34
2018-09-02T02:24:29.280Z,49.96
2018-09-02T02:27:32.551Z,49.91
2018-09-02T02:30:35.951Z,50.14
2018-09-02T02:33:40.222Z,50.20
2018-09-02T02:36:43.467Z,49.83
2018-09-02T02:39:46.732Z,49.65
2018-09-02T02:42:50.076Z,49.85
2018-09-02T02:45:53.348Z,49.79
2018-09-02T02:48:56.579Z,49.86
2018-09-02T02:51:59.844Z,50.29
2018-09-02T02:55:03.141Z,50.13
2018-09-02T02:58:06.392Z,50.00
2018-09-02T03:01:10.645Z,50.11
2018-09-02T03:04:13.977Z,50.10
2018-09-02T03:07:17.322Z,50.44
2018-09-02T03:10:20.660Z,50.41
2018-09-02T03:13:24.017Z,50.38
2018-09-02T03:16:27.247Z,50.60
2018-09-02T03:19:30.599Z,50.68
2018-09-02T03:22:34.075Z,50.24
2018-09-02T03:25:37.787Z,50.54
2018-09-02T03:28:41.118Z,50.24
2018-09-02T03:31:44.372Z,50.57
2018-09-02T03:34:47.731Z,50.73
2018-09-02T03:37:51.061Z,50.65
2018-09-02T03:40:54.374Z,51.11
2018-09-02T03:43:57.632Z,51.10
2018-09-02T03:47:00.991Z,51.20
2018-09-02T03:50:04.260Z,51.39
2018-09-02T03:53:08.155Z,51.61
2018-09-02T03:56:11.550Z,51.82
2018-09-02T03:59:14.847Z,51.87
2018-09-02T04:02:18.144Z,51.91
2018-09-02T04:05:23.517Z,52.04
2018-09-02T04:08:26.798Z,51.89
2018-09-02T04:11:30.222Z,52.23
2018-09-02T04:14:33.487Z,51.92
2018-09-02T04:17:36.908Z,52.19
2018-09-02T04:20:41.196Z,52.30
2018-09-02T04:23:44.514Z,52.47
2018-09-02T04:26:47.872Z,52.45
2018-09-02T04:29:51.087Z,52.49
2018-09-02T04:32:54.422Z,52.33
2018-09-02T04:35:57.664Z,52.39
2018-09-02T04:39:00.881Z,52.47
2018-09-02T04:42:04.085Z,52.50
2018-09-02T04:45:08.275Z,52.55
2018-09-02T04:48:11.507Z,52.62
2018-09-02T04:51:14.693Z,52.56
2018-09-02T04:54:18.049Z,52.76
2018-09-02T04:57:21.285Z,52.83
2018-09-02T05:00:24.615Z,53.08
2018-09-02T05:03:27.803Z,53.29
2018-09-02T05:06:31.071Z,52.94
2018-09-02T05:09:34.348Z,52.68
2018-09-02T05:12:37.692Z,52.73
2018-09-02T05:15:41.079Z,52.94
2018-09-02T05:18:44.403Z,52.93
2018-09-02T05:21:47.720Z,52.96
2018-09-02T05:24:51.996Z,53.36
2018-09-02T05:27:55.290Z,53.36
2018-09-02T05:30:58.591Z,53.01
2018-09-02T05:34:01.879Z,53.26
2018-09-02T05:37:05.294Z,53.08
2018-09-02T05:40:09.635Z,53.61
2018-09-02T05:43:12.906Z,53.32
2018-09-02T05:46:16.215Z,53.51
2018-09-02T05:49:20.647Z,53.69
2018-09-02T05:52:23.899Z,53.61
2018-09-02T05:55:27.097Z,52.91
2018-09-02T05:58:30.529Z,53.16
2018-09-02T06:01:33.803Z,53.08
2018-09-02T06:04:37.091Z,53.03
2018-09-02T06:07:41.445Z,53.21
2018-09-02T06:10:44.732Z,53.18
2018-09-02T06:13:48.257Z,53.10
2018-09-02T06:16:51.531Z,53.01
2018-09-02T06:19:54.818Z,52.95
2018-09-02T06:22:58.133Z,53.19
2018-09-02T06:26:01.415Z,53.17
2018-09-02T06:29:04.707Z,52.89
2018-09-02T06:32:08.004Z,53.12
2018-09-02T06:35:11.532Z,53.23
2018-09-02T06:38:14.907Z,53.61
2018-09-02T06:41:18.178Z,53.81
2018-09-02T06:44:21.392Z,54.22
2018-09-02T06:47:24.724Z,54.37
2018-09-02T06:50:29.009Z,54.64
2018-09-02T06:53:32.312Z,54.71
2018-09-02T06:56:35.683Z,54.79
2018-09-02T06:59:39.354Z,54.89
2018-09-02T07:02:42.851Z,54.71
2018-09-02T07:05:47.140Z,54.97
2018-09-02T07:08:50.453Z,55.18
2018-09-02T07:11:53.750Z,54.44
2018-09-02T07:14:56.934Z,54.90
2018-09-02T07:18:00.360Z,55.22
2018-09-02T07:21:03.634Z,55.29
2018-09-02T07:24:06.861Z,55.13
2018-09-02T07:27:10.787Z,55.14
2018-09-02T07:30:15.415Z,55.30
2018-09-02T07:33:18.689Z,55.22
2018-09-02T07:36:22.002Z,55.30
2018-09-02T07:39:25.316Z,55.42
2018-09-02T07:42:28.585Z,55.02
2018-09-02T07:45:32.939Z,54.82
2018-09-02T07:48:36.217Z,56.67
2018-09-02T07:51:41.962Z,56.79
2018-09-02T07:54:45.294Z,57.06
2018-09-02T07:57:49.547Z,56.44
2018-09-02T08:00:53.589Z,56.96
2018-09-02T08:03:56.830Z,57.36
2018-09-02T08:07:00.142Z,57.04
2018-09-02T08:10:03.435Z,57.30
2018-09-02T08:13:06.585Z,57.21
2018-09-02T08:16:10.464Z,57.44
2018-09-02T08:19:13.747Z,57.52
2018-09-02T08:22:17.073Z,57.35
2018-09-02T08:25:20.231Z,57.63
2018-09-02T08:28:24.587Z,57.38
2018-09-02T08:31:27.879Z,57.62
2018-09-02T08:34:31.186Z,57.44
2018-09-02T08:37:34.510Z,57.47
2018-09-02T08:40:37.767Z,57.43
2018-09-02T08:43:41.091Z,57.88
2018-09-02T08:46:44.285Z,57.38
2018-09-02T08:49:48.567Z,57.38
2018-09-02T08:52:51.850Z,58.13
2018-09-02T08:55:56.254Z,57.59
2018-09-02T08:58:59.497Z,57.51
2018-09-02T09:02:03.158Z,57.72
2018-09-02T09:05:06.430Z,57.41
2018-09-02T09:08:10.252Z,57.63
2018-09-02T09:11:13.380Z,57.73
2018-09-02T09:14:16.531Z,57.94
2018-09-02T09:17:19.782Z,57.64
2018-09-02T09:20:23.151Z,57.78
2018-09-02T09:23:26.467Z,58.38
2018-09-02T09:26:30.826Z,58.29
2018-09-02T09:29:34.134Z,57.98
2018-09-02T09:32:38.856Z,58.60
2018-09-02T09:35:42.115Z,58.99
2018-09-02T09:38:45.281Z,58.09
2018-09-02T09:41:48.667Z,58.28
2018-09-02T09:44:52.533Z,58.28
2018-09-02T09:47:55.699Z,57.83
2018-09-02T09:50:59.011Z,58.56
2018-09-02T09:54:03.654Z,59.20
2018-09-02T09:57:07.121Z,59.29
2018-09-02T10:00:10.331Z,58.71
2018-09-02T10:03:13.568Z,58.58
2018-09-02T10:06:16.863Z,58.56
2018-09-02T10:09:20.143Z,58.01
2018-09-02T10:12:23.372Z,57.95
2018-09-02T10:15:26.726Z,57.61
2018-09-02T10:18:29.907Z,57.90
2018-09-02T10:21:33.480Z,57.94
2018-09-02T10:24:37.183Z,58.03
2018-09-02T10:27:42.946Z,59.58
2018-09-02T10:30:46.198Z,59.20
2018-09-02T10:33:49.507Z,59.47
2018-09-02T10:36:52.828Z,59.73
2018-09-02T10:39:56.658Z,60.07
2018-09-02T10:43:00.196Z,59.66
2018-09-02T10:46:04.728Z,59.90
2018-09-02T10:49:08.702Z,59.24
2018-09-02T10:52:11.855Z,59.36
2018-09-02T10:55:15.121Z,59.82
2018-09-02T10:58:18.376Z,59.24
2018-09-02T11:01:21.689Z,58.97
2018-09-02T11:04:24.935Z,59.30
2018-09-02T11:07:28.703Z,59.44
2018-09-02T11:10:31.964Z,58.89
2018-09-02T11:13:35.403Z,58.30
2018-09-02T11:16:38.691Z,58.16
2018-09-02T11:19:44.327Z,57.85
2018-09-02T11:22:47.744Z,58.29
2018-09-02T11:25:53.032Z,58.52
2018-09-02T11:28:56.299Z,59.03
2018-09-02T11:31:59.526Z,58.84
2018-09-02T11:35:03.974Z,58.58
2018-09-02T11:38:07.352Z,58.85
2018-09-02T11:41:10.637Z,59.27
2018-09-02T11:44:13.947Z,58.80
2018-09-02T11:47:17.207Z,59.09
2018-09-02T11:50:21.297Z,58.47
2018-09-02T11:53:24.559Z,58.33
2018-09-02T11:56:27.864Z,57.98
2018-09-02T11:59:31.036Z,57.86
2018-09-02T12:02:34.352Z,58.55
2018-09-02T12:05:37.635Z,58.18
2018-09-02T12:08:41.843Z,58.26
2018-09-02T12:11:45.278Z,58.16
2018-09-02T12:14:48.455Z,57.61
2018-09-02T12:17:51.748Z,58.07
2018-09-02T12:20:54.948Z,57.51
2018-09-02T12:23:58.383Z,57.80
2018-09-02T12:27:01.859Z,57.95
2018-09-02T12:30:05.131Z,57.77
2018-09-02T12:33:08.295Z,58.14
2018-09-02T12:36:11.743Z,58.43
2018-09-02T12:39:15.057Z,58.33
2018-09-02T12:42:18.490Z,58.61
2018-09-02T12:45:21.780Z,58.64
2018-09-02T12:48:26.101Z,58.93
2018-09-02T12:51:29.333Z,58.76
2018-09-02T12:54:33.627Z,59.04
2018-09-02T12:57:37.283Z,58.82
2018-09-02T13:00:41.226Z,58.51
2018-09-02T13:03:44.466Z,58.39
2018-09-02T13:06:47.792Z,58.42
2018-09-02T13:09:51.066Z,58.27
2018-09-02T13:12:54.292Z,58.65
2018-09-02T13:15:57.593Z,58.87
2018-09-02T13:19:00.933Z,58.79
2018-09-02T13:22:04.047Z,58.78
2018-09-02T13:25:07.372Z,59.09
2018-09-02T13:28:11.639Z,58.99
2018-09-02T13:31:14.891Z,58.66
2018-09-02T13:34:18.174Z,58.69
2018-09-02T13:37:21.465Z,58.56
2018-09-02T13:40:24.822Z,59.18
2018-09-02T13:43:28.083Z,59.10
2018-09-02T13:46:31.361Z,58.63
2018-09-02T13:49:34.579Z,59.19
2018-09-02T13:52:37.879Z,58.91
2018-09-02T13:55:41.894Z,59.29
2018-09-02T13:58:47.253Z,59.44
2018-09-02T14:01:50.495Z,59.55
2018-09-02T14:04:53.824Z,59.43
2018-09-02T14:07:57.354Z,59.37
2018-09-02T14:11:00.547Z,59.66
2018-09-02T14:14:03.830Z,60.07
2018-09-02T14:17:07.146Z,60.88
2018-09-02T14:20:10.799Z,61.80
2018-09-02T14:23:14.152Z,61.92
2018-09-02T14:26:18.156Z,61.96
2018-09-02T14:29:21.435Z,62.20
2018-09-02T14:32:24.759Z,62.34
2018-09-02T14:35:28.053Z,63.08
2018-09-02T14:38:31.435Z,62.44
2018-09-02T14:41:34.726Z,62.33
2018-09-02T14:44:38.012Z,62.34
2018-09-02T14:47:42.369Z,62.40
2018-09-02T14:50:45.706Z,62.45
2018-09-02T14:53:48.976Z,63.28
2018-09-02T14:56:52.182Z,65.01
2018-09-02T14:59:55.432Z,66.30
2018-09-02T15:02:58.739Z,65.35
2018-09-02T15:06:02.364Z,65.40
2018-09-02T15:09:07.729Z,64.62
2018-09-02T15:12:11.924Z,66.02
2018-09-02T15:15:15.204Z,65.93
2018-09-02T15:18:18.627Z,65.87
2018-09-02T15:21:21.971Z,65.33
2018-09-02T15:24:25.312Z,64.80
2018-09-02T15:27:28.590Z,66.08
2018-09-02T15:30:31.875Z,67.52
2018-09-02T15:33:35.223Z,67.86
2018-09-02T15:36:38.507Z,67.50
2018-09-02T15:39:42.628Z,67.71
2018-09-02T15:42:45.945Z,68.11
2018-09-02T15:45:49.163Z,68.89
2018-09-02T15:48:52.523Z,69.00
2018-09-02T15:51:55.790Z,69.61
2018-09-02T15:54:59.103Z,69.68
2018-09-02T15:58:02.518Z,69.79
2018-09-02T16:01:05.995Z,71.02
2018-09-02T16:04:10.028Z,70.61
2018-09-02T16:07:13.295Z,70.03
2018-09-02T16:10:16.579Z,70.46
2018-09-02T16:13:19.817Z,70.87
2018-09-02T16:16:23.145Z,70.56
2018-09-02T16:19:26.484Z,70.98
2018-09-02T16:22:29.862Z,70.54
2018-09-02T16:25:33.218Z,69.67
2018-09-02T16:28:36.604Z,69.61
2018-09-02T16:31:40.434Z,69.74
2018-09-02T16:34:43.910Z,70.19
2018-09-02T16:37:47.226Z,69.99
2018-09-02T16:40:50.723Z,68.74
2018-09-02T16:43:54.028Z,67.41
2018-09-02T16:46:57.275Z,67.45
2018-09-02T16:50:00.590Z,66.79
2018-09-02T16:53:04.026Z,66.69
2018-09-02T16:56:07.327Z,66.04
2018-09-02T16:59:11.567Z,64.24
2018-09-02T17:02:14.991Z,64.49
2018-09-02T17:05:23.227Z,63.94
2018-09-02T17:08:26.551Z,64.39
2018-09-02T17:11:29.926Z,64.19
2018-09-02T17:14:33.138Z,64.32
2018-09-02T17:17:36.440Z,64.19
2018-09-02T17:20:42.967Z,64.18
2018-09-02T17:23:46.276Z,64.64
2018-09-02T17:26:49.715Z,64.50
2018-09-02T17:29:52.988Z,64.08
2018-09-02T17:32:56.333Z,64.02
2018-09-02T17:35:59.603Z,64.05
2018-09-02T17:39:03.119Z,64.02
2018-09-02T17:42:06.381Z,64.22
2018-09-02T17:45:09.740Z,64.15
2018-09-02T17:48:14.136Z,65.04
2018-09-02T17:51:17.425Z,64.64
2018-09-02T17:54:20.714Z,64.52
2018-09-02T17:57:24.012Z,65.10
2018-09-02T18:00:33.612Z,64.95
2018-09-02T18:03:36.784Z,64.76
2018-09-02T18:06:40.157Z,64.92
2018-09-02T18:09:44.020Z,65.00
2018-09-02T18:12:49.320Z,65.16
2018-09-02T18:15:54.826Z,65.63
2018-09-02T18:18:58.057Z,65.25
2018-09-02T18:22:01.511Z,65.37
2018-09-02T18:25:04.887Z,65.47
2018-09-02T18:28:10.699Z,65.12
2018-09-02T18:31:14.063Z,65.39
2018-09-02T18:34:17.347Z,65.64
2018-09-02T18:37:20.556Z,65.38
2018-09-02T18:40:23.839Z,65.48
2018-09-02T18:43:27.176Z,66.16
2018-09-02T18:46:30.463Z,65.77
2018-09-02T18:49:33.747Z,65.54
2018-09-02T18:52:37.091Z,65.33
2018-09-02T18:55:40.251Z,65.38
2018-09-02T18:58:45.584Z,65.56
2018-09-02T19:01:48.895Z,65.88
2018-09-02T19:04:52.194Z,66.29
2018-09-02T19:07:55.391Z,66.13
2018-09-02T19:10:58.691Z,65.83
2018-09-02T19:14:02.957Z,66.32
2018-09-02T19:17:06.535Z,66.25
2018-09-02T19:20:09.845Z,68.21
2018-09-02T19:23:13.115Z,69.66
2018-09-02T19:26:16.423Z,70.82
2018-09-02T19:29:20.676Z,70.50
2018-09-02T19:32:23.960Z,73.10
2018-09-02T19:35:27.757Z,73.50
2018-09-02T19:38:31.061Z,75.33
2018-09-02T19:41:34.393Z,75.25
2018-09-02T19:44:37.640Z,76.47
2018-09-02T19:47:41.024Z,77.39
2018-09-02T19:50:44.348Z,77.11
2018-09-02T19:53:47.592Z,77.30
2018-09-02T19:56:50.912Z,78.08
2018-09-02T19:59:55.943Z,77.83
2018-09-02T20:02:59.157Z,77.64
2018-09-02T20:06:02.469Z,77.75
2018-09-02T20:09:08.757Z,77.63
2018-09-02T20:12:12.035Z,78.56
2018-09-02T20:15:15.340Z,78.05
2018-09-02T20:18:18.728Z,79.11
2018-09-02T20:21:21.999Z,77.59
2018-09-02T20:24:26.011Z,80.77
2018-09-02T20:27:30.397Z,80.05
2018-09-02T20:30:33.707Z,80.10
2018-09-02T20:33:36.915Z,81.97
2018-09-02T20:36:40.281Z,81.38
2018-09-02T20:39:43.662Z,82.45
2018-09-02T20:42:46.951Z,82.64
2018-09-02T20:45:50.219Z,83.18
2018-09-02T20:48:54.615Z,82.79
2018-09-02T20:51:58.566Z,82.09
2018-09-02T20:55:01.836Z,82.23
2018-09-02T20:58:04.961Z,81.21
2018-09-02T21:01:08.222Z,81.14
2018-09-02T21:04:11.543Z,81.95
2018-09-02T21:07:14.892Z,82.34
2018-09-02T21:10:18.252Z,83.67
2018-09-02T21:13:23.483Z,82.11
2018-09-02T21:16:27.587Z,83.68
2018-09-02T21:19:30.899Z,84.29
2018-09-02T21:22:34.184Z,83.91
2018-09-02T21:25:37.524Z,84.70
2018-09-02T21:28:40.810Z,85.81
2018-09-02T21:31:43.985Z,85.32
2018-09-02T21:34:47.288Z,85.59
2018-09-02T21:37:51.511Z,85.93
2018-09-02T21:40:54.695Z,86.44
2018-09-02T21:43:59.219Z,84.65
2018-09-02T21:47:02.482Z,86.96
2018-09-02T21:50:06.257Z,88.30
2018-09-02T21:53:09.515Z,87.64
2018-09-02T21:56:13.732Z,87.95
2018-09-02T21:59:17.047Z,88.14
2018-09-02T22:02:20.471Z,88.78
2018-09-02T22:05:23.748Z,89.58
2018-09-02T22:08:27.943Z,89.49
2018-09-02T22:11:31.235Z,89.17
2018-09-02T22:14:34.411Z,90.09
2018-09-02T22:17:37.877Z,87.90
2018-09-02T22:20:41.142Z,88.75
2018-09-02T22:23:44.355Z,89.31
2018-09-02T22:26:47.640Z,86.69
2018-09-02T22:29:50.941Z,88.88
2018-09-02T22:32:54.224Z,90.28
2018-09-02T22:35:58.409Z,89.94
2018-09-02T22:39:01.675Z,89.78
2018-09-02T22:42:04.935Z,89.37
2018-09-02T22:45:08.268Z,87.86
2018-09-02T22:48:11.442Z,87.30
2018-09-02T22:51:14.726Z,87.33
2018-09-02T22:54:18.016Z,87.81
2018-09-02T22:57:21.319Z,87.46
2018-09-02T23:00:24.623Z,87.28
2018-09-02T23:03:28.607Z,87.31
2018-09-02T23:06:31.809Z,87.47
2018-09-02T23:09:35.137Z,87.37
2018-09-02T23:12:38.419Z,86.58
2018-09-02T23:15:41.617Z,86.98
2018-09-02T23:18:44.982Z,87.45
2018-09-02T23:21:48.337Z,88.09
2018-09-02T23:24:51.611Z,89.29
2018-09-02T23:27:54.947Z,88.39
2018-09-02T23:30:58.204Z,88.92
2018-09-02T23:34:01.455Z,88.63
2018-09-02T23:37:04.838Z,88.17
2018-09-02T23:40:08.130Z,88.21
2018-09-02T23:43:11.406Z,88.34
2018-09-02T23:46:14.629Z,89.15
2018-09-02T23:49:17.887Z,88.65
2018-09-02T23:52:21.284Z,88.89
2018-09-02T23:55:24.620Z,89.33
2018-09-02T23:58:28.782Z,88.46
